createdAt,value
2018-11-06T00:00:13.624Z,65.30
2018-11-06T00:02:42.552Z,64.40
2018-11-06T00:05:13.469Z,64.80
2018-11-06T00:07:42.893Z,62.93
2018-11-06T00:10:11.889Z,63.60
2018-11-06T00:12:41.052Z,69.53
2018-11-06T00:15:10.144Z,67.43
2018-11-06T00:17:39.344Z,72.80
2018-11-06T00:20:11.297Z,66.43
2018-11-06T00:22:40.032Z,64.63
2018-11-06T00:25:10.210Z,63.90
2018-11-06T00:27:39.519Z,65.23
2018-11-06T00:30:10.039Z,67.43
2018-11-06T00:32:39.545Z,61.67
2018-11-06T00:35:10.155Z,68.57
2018-11-06T00:37:39.137Z,71.27
2018-11-06T00:40:08.072Z,70.90
2018-11-06T00:42:37.016Z,71.63
2018-11-06T00:45:07.549Z,69.67
2018-11-06T00:47:36.396Z,67.87
2018-11-06T00:50:06.046Z,72.13
2018-11-06T00:52:34.800Z,64.93
2018-11-06T00:55:03.652Z,65.90
2018-11-06T00:57:32.374Z,70.93
2018-11-06T01:00:01.128Z,70.43
2018-11-06T01:02:29.911Z,68.83
2018-11-06T01:04:58.717Z,72.43
2018-11-06T01:07:28.376Z,69.53
2018-11-06T01:09:57.256Z,70.03
2018-11-06T01:12:26.139Z,67.53
2018-11-06T01:14:55.032Z,66.60
2018-11-06T01:17:23.745Z,66.70
2018-11-06T01:19:52.452Z,68.53
2018-11-06T01:22:21.282Z,65.10
2018-11-06T01:24:49.999Z,68.30
2018-11-06T01:27:18.910Z,67.47
2018-11-06T01:29:47.632Z,68.57
2018-11-06T01:32:16.424Z,66.00
2018-11-06T01:34:45.209Z,63.17
2018-11-06T01:37:14.028Z,62.37
2018-11-06T01:39:42.737Z,66.60
2018-11-06T01:42:11.500Z,62.17
2018-11-06T01:44:40.235Z,66.23
2018-11-06T01:47:09.034Z,63.50
2018-11-06T01:49:37.727Z,64.27
2018-11-06T01:52:06.436Z,62.67
2018-11-06T01:54:35.195Z,67.67
2018-11-06T01:57:03.996Z,59.53
2018-11-06T01:59:32.773Z,66.43
2018-11-06T02:02:01.517Z,60.13
2018-11-06T02:04:30.432Z,62.53
2018-11-06T02:06:59.168Z,67.37
2018-11-06T02:09:27.922Z,64.63
2018-11-06T02:11:56.636Z,57.97
2018-11-06T02:14:25.373Z,62.80
2018-11-06T02:16:54.257Z,65.00
2018-11-06T02:19:23.028Z,62.57
2018-11-06T02:21:51.753Z,61.83
2018-11-06T02:24:20.473Z,60.53
2018-11-06T02:26:49.235Z,56.03
2018-11-06T02:29:18.040Z,60.17
2018-11-06T02:31:46.759Z,58.70
2018-11-06T02:34:15.493Z,57.17
2018-11-06T02:36:44.229Z,53.50
2018-11-06T02:39:12.945Z,60.00
2018-11-06T02:44:16.863Z,58.50
2018-11-06T02:46:45.590Z,61.30
2018-11-06T02:49:14.311Z,56.73
2018-11-06T02:51:43.034Z,57.93
2018-11-06T02:54:11.745Z,59.70
2018-11-06T02:56:40.502Z,55.67
2018-11-06T02:59:09.186Z,53.50
2018-11-06T03:01:38.012Z,55.00
2018-11-06T03:04:07.030Z,54.93
2018-11-06T03:06:35.777Z,57.10
2018-11-06T03:09:06.462Z,58.10
2018-11-06T03:11:35.166Z,52.30
2018-11-06T03:14:03.999Z,53.13
2018-11-06T03:16:32.899Z,53.63
2018-11-06T03:19:01.722Z,51.77
2018-11-06T03:21:30.461Z,48.47
2018-11-06T03:23:59.239Z,51.60
2018-11-06T03:26:28.103Z,56.63
2018-11-06T03:28:56.827Z,54.57
2018-11-06T03:31:25.574Z,56.00
2018-11-06T03:33:54.369Z,56.27
2018-11-06T03:36:23.096Z,54.83
2018-11-06T03:38:51.905Z,57.17
2018-11-06T03:41:20.668Z,60.20
2018-11-06T03:43:49.456Z,53.03
2018-11-06T03:46:18.245Z,49.03
2018-11-06T03:48:46.958Z,54.83
2018-11-06T03:51:15.662Z,54.80
2018-11-06T03:53:44.963Z,52.27
2018-11-06T03:56:13.822Z,52.73
2018-11-06T03:58:42.687Z,55.63
2018-11-06T04:01:11.660Z,58.07
2018-11-06T04:03:40.407Z,55.17
2018-11-06T04:06:09.223Z,52.10
2018-11-06T04:08:38.058Z,53.17
2018-11-06T04:11:06.821Z,54.23
2018-11-06T04:13:35.611Z,53.27
2018-11-06T04:16:04.448Z,53.33
2018-11-06T04:18:33.265Z,54.23
2018-11-06T04:21:02.375Z,50.47
2018-11-06T04:23:31.229Z,54.90
2018-11-06T04:26:00.079Z,61.00
2018-11-06T04:28:28.828Z,51.77
2018-11-06T04:30:57.585Z,57.60
2018-11-06T04:36:04.391Z,54.07
2018-11-06T04:38:33.205Z,55.23
2018-11-06T04:41:01.978Z,57.47
2018-11-06T04:43:30.686Z,51.93
2018-11-06T04:45:59.423Z,53.70
2018-11-06T04:48:28.241Z,51.87
2018-11-06T04:50:57.000Z,54.43
2018-11-06T04:53:25.730Z,55.20
2018-11-06T04:55:54.537Z,52.57
2018-11-06T04:58:23.422Z,49.50
2018-11-06T05:00:52.128Z,52.27
2018-11-06T05:03:20.889Z,53.27
2018-11-06T05:05:49.621Z,51.90
2018-11-06T05:08:18.934Z,49.20
2018-11-06T05:10:47.675Z,49.37
2018-11-06T05:13:16.422Z,50.70
2018-11-06T05:15:45.364Z,50.87
2018-11-06T05:18:14.189Z,51.90
2018-11-06T05:20:42.916Z,48.80
2018-11-06T05:23:11.734Z,48.63
2018-11-06T05:25:40.592Z,53.07
2018-11-06T05:28:09.280Z,49.67
2018-11-06T05:30:45.463Z,49.47
2018-11-06T05:33:14.401Z,48.87
2018-11-06T05:35:43.216Z,52.57
2018-11-06T05:38:12.158Z,46.90
2018-11-06T05:40:56.617Z,50.07
2018-11-06T05:43:25.467Z,48.90
2018-11-06T05:45:54.563Z,48.73
2018-11-06T05:48:23.369Z,49.07
2018-11-06T05:50:52.043Z,47.57
2018-11-06T05:53:21.614Z,50.53
2018-11-06T05:55:50.476Z,49.07
2018-11-06T05:58:19.287Z,51.20
2018-11-06T06:00:48.448Z,50.43
2018-11-06T06:03:17.272Z,52.00
2018-11-06T06:05:46.153Z,49.70
2018-11-06T06:08:18.223Z,49.57
2018-11-06T06:10:47.066Z,51.33
2018-11-06T06:13:15.873Z,49.30
2018-11-06T06:15:44.633Z,47.23
2018-11-06T06:18:13.475Z,49.37
2018-11-06T06:20:43.351Z,51.93
2018-11-06T06:23:12.327Z,47.77
2018-11-06T06:25:41.209Z,47.40
2018-11-06T06:28:10.316Z,46.70
2018-11-06T06:30:39.500Z,45.63
2018-11-06T06:33:08.452Z,46.53
2018-11-06T06:35:37.342Z,43.47
2018-11-06T06:38:06.377Z,50.97
2018-11-06T06:40:35.494Z,48.10
2018-11-06T06:43:04.873Z,40.97
2018-11-06T06:45:33.778Z,45.50
2018-11-06T06:48:02.664Z,48.53
2018-11-06T06:50:31.500Z,45.63
2018-11-06T06:53:00.904Z,41.40
2018-11-06T06:55:29.745Z,43.93
2018-11-06T06:57:58.602Z,43.87
2018-11-06T07:00:27.466Z,44.90
2018-11-06T07:02:56.386Z,40.00
2018-11-06T07:05:25.205Z,39.97
2018-11-06T07:07:54.011Z,39.30
2018-11-06T07:10:23.274Z,41.57
2018-11-06T07:12:52.117Z,39.97
2018-11-06T07:15:22.007Z,37.80
2018-11-06T07:17:51.816Z,38.27
2018-11-06T07:20:22.161Z,39.20
2018-11-06T07:22:51.512Z,42.60
2018-11-06T07:25:20.706Z,38.90
2018-11-06T07:27:49.868Z,42.60
2018-11-06T07:30:20.054Z,39.50
2018-11-06T07:32:48.912Z,37.17
2018-11-06T07:35:18.432Z,36.87
2018-11-06T07:37:48.134Z,38.00
2018-11-06T07:40:18.448Z,36.47
2018-11-06T07:42:47.515Z,34.93
2018-11-06T07:45:18.045Z,39.40
2018-11-06T07:47:46.865Z,36.83
2018-11-06T07:50:15.969Z,33.67
2018-11-06T07:52:45.076Z,36.87
2018-11-06T07:55:17.526Z,35.40
2018-11-06T07:57:46.654Z,39.20
2018-11-06T08:00:23.128Z,34.63
2018-11-06T08:02:52.181Z,41.23
2018-11-06T08:05:21.117Z,34.63
2018-11-06T08:07:50.918Z,34.73
2018-11-06T08:10:19.710Z,37.07
2018-11-06T08:12:49.762Z,36.73
2018-11-06T08:15:19.368Z,35.97
2018-11-06T08:17:48.558Z,40.60
2018-11-06T08:20:17.422Z,38.37
2018-11-06T08:22:46.251Z,39.17
2018-11-06T08:25:15.902Z,32.83
2018-11-06T08:27:45.267Z,35.87
2018-11-06T08:30:14.428Z,36.30
2018-11-06T08:32:43.692Z,34.63
2018-11-06T08:35:13.861Z,37.73
2018-11-06T08:37:43.531Z,35.00
2018-11-06T08:40:14.320Z,37.53
2018-11-06T08:42:43.273Z,37.37
2018-11-06T08:45:13.317Z,38.50
2018-11-06T08:47:43.047Z,38.03
2018-11-06T08:50:13.116Z,38.23
2018-11-06T08:52:42.075Z,37.83
2018-11-06T08:55:12.092Z,38.17
2018-11-06T08:57:41.460Z,37.40
2018-11-06T09:00:13.987Z,37.00
2018-11-06T09:02:43.810Z,35.40
2018-11-06T09:05:14.672Z,35.97
2018-11-06T09:07:43.691Z,38.00
2018-11-06T09:10:13.608Z,35.87
2018-11-06T09:12:43.362Z,35.40
2018-11-06T09:15:13.725Z,38.10
2018-11-06T09:17:42.587Z,36.70
2018-11-06T09:20:13.625Z,35.10
2018-11-06T09:25:21.164Z,35.40
2018-11-06T09:27:49.924Z,39.70
2018-11-06T09:30:19.445Z,36.77
2018-11-06T09:32:49.032Z,36.37
2018-11-06T09:35:17.826Z,42.67
2018-11-06T09:37:46.614Z,40.53
2018-11-06T09:40:16.973Z,41.80
2018-11-06T09:42:45.788Z,36.70
2018-11-06T09:45:14.796Z,40.27
2018-11-06T09:47:43.564Z,37.40
2018-11-06T09:50:14.070Z,35.50
2018-11-06T09:52:43.356Z,38.63
2018-11-06T09:55:12.619Z,38.13
2018-11-06T09:57:41.386Z,37.50
2018-11-06T10:00:12.828Z,41.07
2018-11-06T10:02:41.647Z,39.03
2018-11-06T10:05:11.502Z,38.67
2018-11-06T10:07:40.364Z,39.30
2018-11-06T10:10:10.769Z,36.80
2018-11-06T10:12:40.738Z,37.27
2018-11-06T10:15:11.704Z,39.37
2018-11-06T10:17:41.577Z,39.13
2018-11-06T10:20:12.001Z,40.07
2018-11-06T10:22:40.751Z,39.60
2018-11-06T10:25:09.660Z,35.43
2018-11-06T10:27:39.088Z,38.90
2018-11-06T10:30:11.147Z,37.70
2018-11-06T10:32:39.941Z,39.40
2018-11-06T10:35:09.416Z,38.27
2018-11-06T10:37:38.231Z,38.93
2018-11-06T10:40:12.980Z,41.17
2018-11-06T10:42:41.844Z,37.20
2018-11-06T10:45:11.810Z,41.63
2018-11-06T10:47:40.721Z,39.33
2018-11-06T10:50:10.940Z,38.37
2018-11-06T10:52:39.812Z,36.17
2018-11-06T10:55:09.070Z,40.20
2018-11-06T10:57:38.960Z,38.43
2018-11-06T11:00:17.868Z,40.43
2018-11-06T11:02:52.277Z,39.53
2018-11-06T11:05:22.851Z,43.30
2018-11-06T11:07:51.680Z,40.00
2018-11-06T11:10:20.576Z,39.33
2018-11-06T11:12:49.562Z,37.50
2018-11-06T11:15:18.304Z,39.60
2018-11-06T11:17:47.072Z,39.10
2018-11-06T11:20:15.938Z,37.97
2018-11-06T11:22:44.923Z,42.73
2018-11-06T11:25:15.008Z,43.43
2018-11-06T11:27:44.470Z,41.23
2018-11-06T11:30:14.338Z,41.87
2018-11-06T11:32:44.626Z,40.77
2018-11-06T11:35:13.996Z,39.67
2018-11-06T11:37:42.970Z,36.93
2018-11-06T11:40:13.159Z,43.93
2018-11-06T11:42:42.244Z,43.63
2018-11-06T11:45:12.342Z,44.23
2018-11-06T11:47:41.293Z,44.23
2018-11-06T11:50:11.514Z,40.40
2018-11-06T11:52:40.455Z,45.60
2018-11-06T11:55:09.631Z,43.10
2018-11-06T11:57:38.817Z,44.30
2018-11-06T12:00:09.421Z,45.97
2018-11-06T12:02:44.890Z,42.50
2018-11-06T12:05:13.630Z,44.93
2018-11-06T12:07:42.391Z,42.37
2018-11-06T12:10:12.118Z,42.33
2018-11-06T12:12:41.087Z,41.57
2018-11-06T12:15:12.303Z,43.93
2018-11-06T12:17:41.492Z,48.60
2018-11-06T12:20:11.857Z,42.40
2018-11-06T12:22:40.941Z,48.63
2018-11-06T12:25:10.159Z,43.63
2018-11-06T12:27:38.873Z,42.47
2018-11-06T12:30:10.542Z,45.70
2018-11-06T12:32:39.934Z,39.67
2018-11-06T12:35:09.484Z,40.07
2018-11-06T12:37:38.395Z,43.13
2018-11-06T12:40:08.265Z,45.33
2018-11-06T12:42:37.667Z,38.87
2018-11-06T12:45:08.095Z,46.43
2018-11-06T12:47:36.842Z,38.90
2018-11-06T12:50:06.575Z,43.97
2018-11-06T12:52:35.441Z,41.37
2018-11-06T12:55:04.939Z,41.97
2018-11-06T12:57:33.667Z,42.07
2018-11-06T13:00:02.490Z,41.40
2018-11-06T13:02:31.228Z,42.13
2018-11-06T13:04:59.970Z,46.17
2018-11-06T13:07:28.745Z,42.87
2018-11-06T13:09:57.897Z,43.10
2018-11-06T13:12:26.648Z,40.93
2018-11-06T13:14:57.238Z,40.80
2018-11-06T13:17:25.131Z,47.90
2018-11-06T13:19:53.984Z,48.97
2018-11-06T13:22:22.867Z,45.97
2018-11-06T13:24:52.204Z,42.57
2018-11-06T13:27:21.100Z,42.47
2018-11-06T13:29:49.873Z,44.37
2018-11-06T13:32:18.699Z,44.70
2018-11-06T13:34:49.603Z,48.07
2018-11-06T13:37:19.929Z,42.53
2018-11-06T13:42:25.690Z,49.10
2018-11-06T13:44:54.819Z,42.70
2018-11-06T13:47:23.580Z,45.20
2018-11-06T13:49:56.431Z,45.53
2018-11-06T13:52:25.176Z,45.17
2018-11-06T13:54:53.876Z,43.37
2018-11-06T13:57:22.687Z,44.63
2018-11-06T13:59:51.552Z,45.33
2018-11-06T14:02:20.280Z,42.70
2018-11-06T14:04:49.393Z,42.67
2018-11-06T14:07:18.168Z,46.50
2018-11-06T14:09:47.079Z,46.47
2018-11-06T14:12:16.004Z,47.57
2018-11-06T14:14:44.745Z,44.03
2018-11-06T14:17:14.472Z,44.93
2018-11-06T14:19:43.251Z,49.73
2018-11-06T14:22:13.164Z,47.73
2018-11-06T14:24:41.999Z,49.40
2018-11-06T14:27:13.801Z,47.63
2018-11-06T14:29:42.897Z,45.20
2018-11-06T14:32:13.138Z,46.00
2018-11-06T14:34:43.378Z,48.30
2018-11-06T14:37:12.167Z,43.70
2018-11-06T14:39:41.152Z,48.97
2018-11-06T14:42:09.988Z,48.93
2018-11-06T14:44:38.757Z,49.57
2018-11-06T14:47:07.523Z,46.33
2018-11-06T14:49:36.397Z,47.83
2018-11-06T14:52:05.619Z,49.47
2018-11-06T14:54:34.572Z,49.23
2018-11-06T14:57:03.330Z,44.57
2018-11-06T14:59:32.351Z,45.33
2018-11-06T15:02:01.113Z,46.10
2018-11-06T15:04:30.258Z,43.90
2018-11-06T15:06:59.128Z,43.53
2018-11-06T15:09:29.231Z,50.40
2018-11-06T15:12:01.555Z,49.60
2018-11-06T15:14:30.660Z,52.47
2018-11-06T15:16:59.469Z,50.37
2018-11-06T15:19:30.032Z,47.20
2018-11-06T15:21:59.007Z,48.00
2018-11-06T15:24:29.248Z,47.07
2018-11-06T15:26:58.626Z,45.97
2018-11-06T15:29:28.757Z,53.53
2018-11-06T15:31:57.674Z,47.80
2018-11-06T15:34:27.586Z,51.17
2018-11-06T15:36:56.479Z,49.60
2018-11-06T15:39:25.683Z,54.40
2018-11-06T15:41:54.961Z,49.37
2018-11-06T15:44:23.625Z,52.43
2018-11-06T15:46:56.641Z,60.67
2018-11-06T15:49:33.171Z,60.63
2018-11-06T15:52:02.271Z,54.87
2018-11-06T15:54:35.677Z,54.50
2018-11-06T15:57:06.134Z,52.47
2018-11-06T15:59:35.073Z,51.60
2018-11-06T16:02:03.881Z,47.27
2018-11-06T16:04:32.855Z,55.57
2018-11-06T16:07:01.990Z,58.60
2018-11-06T16:09:33.311Z,61.03
2018-11-06T16:12:02.437Z,57.10
2018-11-06T16:14:36.316Z,52.90
2018-11-06T16:17:05.600Z,56.87
2018-11-06T16:19:34.685Z,55.40
2018-11-06T16:22:03.753Z,52.83
2018-11-06T16:24:32.953Z,50.80
2018-11-06T16:27:01.965Z,56.67
2018-11-06T16:29:31.252Z,49.83
2018-11-06T16:32:01.531Z,46.87
2018-11-06T16:34:32.746Z,48.77
2018-11-06T16:37:01.931Z,51.10
2018-11-06T16:42:09.484Z,59.37
2018-11-06T16:44:38.289Z,54.77
2018-11-06T16:47:10.761Z,54.77
2018-11-06T16:49:40.033Z,53.17
2018-11-06T16:52:09.735Z,55.33
2018-11-06T16:54:38.635Z,54.80
2018-11-06T16:57:07.553Z,53.67
2018-11-06T16:59:37.874Z,51.83
2018-11-06T17:02:06.582Z,55.73
2018-11-06T17:04:35.433Z,56.80
2018-11-06T17:07:05.528Z,54.23
2018-11-06T17:09:34.909Z,58.63
2018-11-06T17:12:06.401Z,53.47
2018-11-06T17:14:36.791Z,56.97
2018-11-06T17:17:08.099Z,68.00
2018-11-06T17:19:36.950Z,63.03
2018-11-06T17:22:05.749Z,74.27
2018-11-06T17:24:34.501Z,74.47
2018-11-06T17:27:03.413Z,62.47
2018-11-06T17:29:32.136Z,53.40
2018-11-06T17:32:01.104Z,58.73
2018-11-06T17:34:31.196Z,57.23
2018-11-06T17:37:10.605Z,60.77
2018-11-06T17:39:54.336Z,60.17
2018-11-06T17:42:30.793Z,58.57
2018-11-06T17:45:07.216Z,57.73
2018-11-06T17:47:44.676Z,54.37
2018-11-06T17:50:25.034Z,57.53
2018-11-06T17:52:57.605Z,57.57
2018-11-06T17:55:26.517Z,60.37
2018-11-06T17:57:55.291Z,55.80
2018-11-06T18:00:24.395Z,61.43
2018-11-06T18:02:53.298Z,60.70
2018-11-06T18:05:23.606Z,57.07
2018-11-06T18:07:52.367Z,66.63
2018-11-06T18:10:21.650Z,59.50
2018-11-06T18:12:55.208Z,59.07
2018-11-06T18:15:24.324Z,57.43
2018-11-06T18:17:58.036Z,63.43
2018-11-06T18:20:28.054Z,57.50
2018-11-06T18:23:02.241Z,57.60
2018-11-06T18:25:47.915Z,59.57
2018-11-06T18:28:19.902Z,57.37
2018-11-06T18:30:54.093Z,63.53
2018-11-06T18:33:25.024Z,57.50
2018-11-06T18:35:53.920Z,58.57
2018-11-06T18:38:23.299Z,63.37
2018-11-06T18:40:52.052Z,64.40
2018-11-06T18:43:21.318Z,70.13
2018-11-06T18:45:51.496Z,72.23
2018-11-06T18:48:23.758Z,69.87
2018-11-06T18:50:53.560Z,67.97
2018-11-06T18:53:27.936Z,65.60
2018-11-06T18:55:57.638Z,57.37
2018-11-06T18:58:35.040Z,63.00
2018-11-06T19:01:10.561Z,60.73
2018-11-06T19:03:42.481Z,58.50
2018-11-06T19:06:20.654Z,58.97
2018-11-06T19:08:54.041Z,54.57
2018-11-06T19:11:25.577Z,61.27
2018-11-06T19:13:58.863Z,63.97
2018-11-06T19:16:29.921Z,63.33
2018-11-06T19:18:58.961Z,63.03
2018-11-06T19:21:28.954Z,63.67
2018-11-06T19:23:57.821Z,75.13
2018-11-06T19:26:26.831Z,69.30
2018-11-06T19:28:55.760Z,75.27
2018-11-06T19:31:24.524Z,70.00
2018-11-06T19:33:53.448Z,80.50
2018-11-06T19:36:22.327Z,93.20
2018-11-06T19:38:51.050Z,105.70
2018-11-06T19:41:19.767Z,91.77
2018-11-06T19:43:48.957Z,67.20
2018-11-06T19:46:18.809Z,68.10
2018-11-06T19:48:47.894Z,64.37
2018-11-06T19:51:16.771Z,66.03
2018-11-06T19:53:45.803Z,67.20
2018-11-06T19:56:14.433Z,60.67
2018-11-06T19:58:43.322Z,56.83
2018-11-06T20:01:12.447Z,62.43
2018-11-06T20:03:41.278Z,58.80
2018-11-06T20:06:11.217Z,62.13
2018-11-06T20:08:40.409Z,58.47
2018-11-06T20:11:09.767Z,65.53
2018-11-06T20:16:17.764Z,60.67
2018-11-06T20:18:46.606Z,59.70
2018-11-06T20:21:15.373Z,59.50
2018-11-06T20:23:44.228Z,88.37
2018-11-06T20:26:12.971Z,115.50
2018-11-06T20:28:41.811Z,74.67
2018-11-06T20:31:11.492Z,80.83
2018-11-06T20:33:41.146Z,65.27
2018-11-06T20:36:10.599Z,62.93
2018-11-06T20:38:40.071Z,63.47
2018-11-06T20:41:09.037Z,62.83
2018-11-06T20:43:38.430Z,61.97
2018-11-06T20:46:07.662Z,65.47
2018-11-06T20:48:38.235Z,63.47
2018-11-06T20:51:07.154Z,68.47
2018-11-06T20:53:36.445Z,64.40
2018-11-06T20:56:06.125Z,66.40
2018-11-06T20:58:35.403Z,67.20
2018-11-06T21:01:04.711Z,71.23
2018-11-06T21:03:33.588Z,61.03
2018-11-06T21:06:03.048Z,67.83
2018-11-06T21:08:31.846Z,64.90
2018-11-06T21:11:01.965Z,63.93
2018-11-06T21:13:30.960Z,62.37
2018-11-06T21:16:00.013Z,65.17
2018-11-06T21:18:29.113Z,61.47
2018-11-06T21:20:59.712Z,63.37
2018-11-06T21:23:28.812Z,58.10
2018-11-06T21:25:57.832Z,60.70
2018-11-06T21:28:26.551Z,68.73
2018-11-06T21:30:55.294Z,65.23
2018-11-06T21:33:24.095Z,64.07
2018-11-06T21:35:52.952Z,65.70
2018-11-06T21:38:22.155Z,60.97
2018-11-06T21:40:51.027Z,65.03
2018-11-06T21:43:19.776Z,65.33
2018-11-06T21:45:48.602Z,68.03
2018-11-06T21:48:17.570Z,63.33
2018-11-06T21:50:46.791Z,56.80
2018-11-06T21:53:15.665Z,60.13
2018-11-06T21:55:44.999Z,63.13
2018-11-06T21:58:14.869Z,58.97
2018-11-06T22:00:43.957Z,61.67
2018-11-06T22:03:13.073Z,67.47
2018-11-06T22:05:41.930Z,58.97
2018-11-06T22:08:10.755Z,59.90
2018-11-06T22:10:39.705Z,60.40
2018-11-06T22:13:08.686Z,57.87
2018-11-06T22:15:37.450Z,66.07
2018-11-06T22:18:06.514Z,56.90
2018-11-06T22:20:35.785Z,58.53
2018-11-06T22:23:05.245Z,58.63
2018-11-06T22:25:33.991Z,56.47
2018-11-06T22:28:02.832Z,58.03
2018-11-06T22:30:31.777Z,51.30
2018-11-06T22:33:00.563Z,50.67
2018-11-06T22:35:29.669Z,52.73
2018-11-06T22:37:58.545Z,55.30
2018-11-06T22:40:27.379Z,56.27
2018-11-06T22:42:56.548Z,56.90
2018-11-06T22:45:25.508Z,52.53
2018-11-06T22:47:54.326Z,50.97
2018-11-06T22:50:23.449Z,55.77
2018-11-06T22:52:52.440Z,54.53
2018-11-06T22:55:21.439Z,63.77
2018-11-06T22:57:50.222Z,58.43
2018-11-06T23:00:24.646Z,62.27
2018-11-06T23:02:53.508Z,61.93
2018-11-06T23:05:22.290Z,59.90
2018-11-06T23:07:56.643Z,60.50
2018-11-06T23:10:25.477Z,61.47
2018-11-06T23:12:54.190Z,57.70
2018-11-06T23:15:23.085Z,58.53
2018-11-06T23:17:51.988Z,68.67
2018-11-06T23:20:20.855Z,58.93
2018-11-06T23:22:50.245Z,64.13
2018-11-06T23:25:19.047Z,56.77
2018-11-06T23:27:47.833Z,64.27
2018-11-06T23:30:16.707Z,63.53
2018-11-06T23:32:45.493Z,62.73
2018-11-06T23:35:14.231Z,67.33
2018-11-06T23:37:43.089Z,64.53
2018-11-06T23:40:12.064Z,70.10
2018-11-06T23:42:41.478Z,66.93
2018-11-06T23:45:10.509Z,67.57
2018-11-06T23:47:40.195Z,69.50
2018-11-06T23:50:09.563Z,71.87
2018-11-06T23:55:19.077Z,69.93
2018-11-06T23:57:48.188Z,68.53
